TimeCDT,TemperatureF,Dew PointF,Humidity,Sea Level PressureIn,VisibilityMPH,Wind Direction,Wind SpeedMPH,Gust SpeedMPH,PrecipitationIn,Events,Conditions,WindDirDegrees,DateUTC
12:02 AM,35.6,32.0,87,30.10,8.0,NNW,8.1,17.3,0.00,Snow,Light Snow,340,2013-04-24 05:02:00
12:55 AM,33.1,32.0,96,30.14,2.5,NNW,9.2,-,0.02,Snow,Light Snow,340,2013-04-24 05:55:00
1:06 AM,33.8,32.0,93,30.10,4.0,NNW,4.6,-,0.00,Snow,Light Snow,340,2013-04-24 06:06:00
1:22 AM,33.8,32.0,93,30.10,9.0,NW,3.5,-,0.00,,Overcast,320,2013-04-24 06:22:00
1:55 AM,35.1,28.0,76,30.14,10.0,NNW,10.4,18.4,0.00,,Overcast,330,2013-04-24 06:55:00
2:55 AM,34.0,28.9,82,30.12,10.0,NW,8.1,-,N/A,,Overcast,320,2013-04-24 07:55:00
3:55 AM,34.0,28.0,79,30.14,10.0,NW,6.9,-,N/A,,Overcast,310,2013-04-24 08:55:00
4:55 AM,33.1,25.0,72,30.15,10.0,NW,6.9,-,N/A,,Overcast,320,2013-04-24 09:55:00
5:55 AM,32.0,25.0,75,30.17,10.0,NW,6.9,-,N/A,,Mostly Cloudy,320,2013-04-24 10:55:00
6:55 AM,30.9,24.1,76,30.20,10.0,WNW,10.4,-,N/A,,Clear,300,2013-04-24 11:55:00
7:55 AM,32.0,25.0,75,30.22,10.0,WNW,10.4,-,N/A,,Clear,300,2013-04-24 12:55:00
8:55 AM,35.1,27.0,72,30.23,10.0,NW,6.9,-,N/A,,Clear,310,2013-04-24 13:55:00
9:55 AM,37.0,27.0,67,30.22,10.0,WNW,11.5,-,N/A,,Partly Cloudy,290,2013-04-24 14:55:00
10:55 AM,39.9,27.0,60,30.22,10.0,WNW,11.5,18.4,N/A,,Clear,290,2013-04-24 15:55:00
11:55 AM,43.0,25.0,49,30.22,10.0,NW,10.4,-,N/A,,Clear,310,2013-04-24 16:55:00
12:55 PM,46.0,28.9,51,30.20,10.0,WNW,12.7,-,N/A,,Clear,290,2013-04-24 17:55:00
1:55 PM,48.0,28.9,48,30.19,10.0,WNW,12.7,18.4,N/A,,Clear,300,2013-04-24 18:55:00
2:55 PM,51.1,27.0,39,30.19,10.0,West,9.2,-,N/A,,Clear,270,2013-04-24 19:55:00
3:55 PM,51.1,30.9,46,30.18,10.0,West,9.2,19.6,N/A,,Clear,270,2013-04-24 20:55:00
4:55 PM,51.1,28.9,43,30.18,10.0,West,9.2,-,N/A,,Clear,260,2013-04-24 21:55:00
5:55 PM,51.1,28.0,41,30.18,10.0,SW,11.5,19.6,N/A,,Clear,230,2013-04-24 22:55:00
6:55 PM,48.9,28.0,44,30.18,10.0,WSW,11.5,17.3,N/A,,Clear,240,2013-04-24 23:55:00
7:55 PM,46.0,28.0,50,30.19,10.0,SW,8.1,-,N/A,,Clear,230,2013-04-25 00:55:00
8:55 PM,42.1,28.9,60,30.19,10.0,SSW,6.9,-,N/A,,Clear,210,2013-04-25 01:55:00
9:55 PM,42.1,30.0,62,30.20,10.0,SSW,8.1,-,N/A,,Clear,200,2013-04-25 02:55:00
10:55 PM,44.1,30.0,58,30.20,10.0,SW,10.4,-,N/A,,Scattered Clouds,220,2013-04-25 03:55:00
11:55 PM,42.1,30.0,62,30.19,10.0,SW,9.2,-,N/A,,Clear,220,2013-04-25 04:55:00